Terminal Aerodrome Forecast
Issued by NWS

Home | Current Version | Previous Version | Text Only | Print | Product List | Glossary On
Versions: 1 2 3 4 5 6 7 8 9 10 11 12 13
000
FTAK31 PAJN 262200 AAB
TAFAYA
TAF AMD
PAYA 262200Z 2622/2718 10006KT 6SM -SHRASN BR BKN015 OVC035
      TEMPO 2622/2624 3SM -SHSN BR SCT005 OVC015
     FM270200 VRB06KT P6SM VCSH SCT020 BKN050
     FM270600 VRB03KT P6SM SCT070
     FM271400 00000KT 6SM BR SCT005
      AMD LTD TO CLD VIS AND WIND 2701/2710=

USA.gov is the U.S. government's official web portal to all federal, state and local government web resources and services.